sensor_id;sensor_type;location;lat;lon;timestamp;P1;durP1;ratioP1;P2;durP2;ratioP2
28335;SDS011;15592;53.656;7.276;2023-06-22T00:02:15;15.13;;;12.13;;
28335;SDS011;15592;53.656;7.276;2023-06-22T00:04:41;14.27;;;12.15;;
28335;SDS011;15592;53.656;7.276;2023-06-22T00:07:06;18.08;;;12.55;;
28335;SDS011;15592;53.656;7.276;2023-06-22T00:09:33;19.25;;;14.80;;
28335;SDS011;15592;53.656;7.276;2023-06-22T00:11:59;16.42;;;13.00;;
28335;SDS011;15592;53.656;7.276;2023-06-22T00:14:24;16.08;;;12.70;;
28335;SDS011;15592;53.656;7.276;2023-06-22T00:16:50;14.40;;;12.32;;
28335;SDS011;15592;53.656;7.276;2023-06-22T00:19:22;17.08;;;12.15;;
28335;SDS011;15592;53.656;7.276;2023-06-22T00:21:48;14.27;;;10.65;;
28335;SDS011;15592;53.656;7.276;2023-06-22T00:24:17;12.40;;;10.60;;
28335;SDS011;15592;53.656;7.276;2023-06-22T00:26:43;13.68;;;10.77;;
28335;SDS011;15592;53.656;7.276;2023-06-22T00:29:09;12.98;;;10.10;;
28335;SDS011;15592;53.656;7.276;2023-06-22T00:31:34;18.10;;;12.02;;
28335;SDS011;15592;53.656;7.276;2023-06-22T00:34:00;15.07;;;11.20;;
28335;SDS011;15592;53.656;7.276;2023-06-22T00:36:26;13.48;;;11.38;;
28335;SDS011;15592;53.656;7.276;2023-06-22T00:38:51;12.55;;;10.40;;
28335;SDS011;15592;53.656;7.276;2023-06-22T00:41:17;11.57;;;10.18;;
28335;SDS011;15592;53.656;7.276;2023-06-22T00:43:43;12.30;;;9.70;;
28335;SDS011;15592;53.656;7.276;2023-06-22T00:46:08;10.73;;;9.32;;
28335;SDS011;15592;53.656;7.276;2023-06-22T00:48:34;13.30;;;10.77;;
28335;SDS011;15592;53.656;7.276;2023-06-22T00:51:02;13.73;;;11.02;;
28335;SDS011;15592;53.656;7.276;2023-06-22T00:53:28;15.00;;;11.13;;
28335;SDS011;15592;53.656;7.276;2023-06-22T00:55:53;13.23;;;10.32;;
28335;SDS011;15592;53.656;7.276;2023-06-22T00:58:21;12.60;;;10.25;;
28335;SDS011;15592;53.656;7.276;2023-06-22T01:00:47;18.55;;;13.07;;
28335;SDS011;15592;53.656;7.276;2023-06-22T01:03:13;16.38;;;12.82;;
28335;SDS011;15592;53.656;7.276;2023-06-22T01:05:39;16.48;;;12.68;;
28335;SDS011;15592;53.656;7.276;2023-06-22T01:08:12;12.10;;;10.30;;
28335;SDS011;15592;53.656;7.276;2023-06-22T01:16:25;13.98;;;9.15;;
28335;SDS011;15592;53.656;7.276;2023-06-22T01:18:54;8.98;;;7.30;;
28335;SDS011;15592;53.656;7.276;2023-06-22T01:21:22;7.90;;;5.97;;
28335;SDS011;15592;53.656;7.276;2023-06-22T01:29:24;7.10;;;5.22;;
28335;SDS011;15592;53.656;7.276;2023-06-22T01:31:51;4.90;;;4.40;;
28335;SDS011;15592;53.656;7.276;2023-06-22T01:34:19;4.85;;;4.35;;
28335;SDS011;15592;53.656;7.276;2023-06-22T01:36:46;5.43;;;4.90;;
28335;SDS011;15592;53.656;7.276;2023-06-22T01:39:12;5.45;;;4.88;;
28335;SDS011;15592;53.656;7.276;2023-06-22T01:41:38;5.85;;;4.95;;
28335;SDS011;15592;53.656;7.276;2023-06-22T01:44:07;8.30;;;7.00;;
28335;SDS011;15592;53.656;7.276;2023-06-22T01:46:34;7.25;;;6.13;;
28335;SDS011;15592;53.656;7.276;2023-06-22T01:49:03;5.78;;;5.18;;
28335;SDS011;15592;53.656;7.276;2023-06-22T01:51:29;11.10;;;8.93;;
28335;SDS011;15592;53.656;7.276;2023-06-22T01:53:56;16.25;;;11.40;;
28335;SDS011;15592;53.656;7.276;2023-06-22T01:56:21;12.07;;;9.32;;
28335;SDS011;15592;53.656;7.276;2023-06-22T02:01:59;10.82;;;8.65;;
28335;SDS011;15592;53.656;7.276;2023-06-22T02:04:38;8.38;;;6.82;;
28335;SDS011;15592;53.656;7.276;2023-06-22T02:07:12;7.07;;;5.97;;
28335;SDS011;15592;53.656;7.276;2023-06-22T02:09:42;6.68;;;5.70;;
28335;SDS011;15592;53.656;7.276;2023-06-22T02:12:11;6.40;;;5.22;;
28335;SDS011;15592;53.656;7.276;2023-06-22T02:14:38;5.93;;;4.90;;
28335;SDS011;15592;53.656;7.276;2023-06-22T02:17:04;5.70;;;5.00;;
28335;SDS011;15592;53.656;7.276;2023-06-22T02:19:32;9.25;;;7.63;;
28335;SDS011;15592;53.656;7.276;2023-06-22T02:22:01;8.73;;;7.07;;
28335;SDS011;15592;53.656;7.276;2023-06-22T02:24:27;12.23;;;8.18;;
28335;SDS011;15592;53.656;7.276;2023-06-22T02:26:56;10.73;;;7.97;;
28335;SDS011;15592;53.656;7.276;2023-06-22T02:31:54;13.23;;;9.63;;
28335;SDS011;15592;53.656;7.276;2023-06-22T02:34:20;13.55;;;10.57;;
28335;SDS011;15592;53.656;7.276;2023-06-22T02:36:49;13.20;;;11.10;;
28335;SDS011;15592;53.656;7.276;2023-06-22T02:39:21;14.07;;;11.10;;
28335;SDS011;15592;53.656;7.276;2023-06-22T02:41:53;13.40;;;10.23;;
28335;SDS011;15592;53.656;7.276;2023-06-22T02:44:20;11.07;;;9.43;;
28335;SDS011;15592;53.656;7.276;2023-06-22T02:46:46;13.23;;;10.93;;
28335;SDS011;15592;53.656;7.276;2023-06-22T02:49:13;20.63;;;15.27;;
28335;SDS011;15592;53.656;7.276;2023-06-22T02:51:39;18.88;;;15.23;;
28335;SDS011;15592;53.656;7.276;2023-06-22T02:54:07;26.33;;;17.50;;
28335;SDS011;15592;53.656;7.276;2023-06-22T02:56:32;22.70;;;17.08;;
28335;SDS011;15592;53.656;7.276;2023-06-22T02:58:58;21.45;;;15.32;;
28335;SDS011;15592;53.656;7.276;2023-06-22T03:01:27;21.83;;;16.33;;
28335;SDS011;15592;53.656;7.276;2023-06-22T03:03:55;19.40;;;15.02;;
28335;SDS011;15592;53.656;7.276;2023-06-22T03:06:21;22.33;;;16.98;;
28335;SDS011;15592;53.656;7.276;2023-06-22T03:08:56;19.85;;;15.25;;
28335;SDS011;15592;53.656;7.276;2023-06-22T03:11:24;19.63;;;15.23;;
28335;SDS011;15592;53.656;7.276;2023-06-22T03:13:49;16.83;;;13.73;;
28335;SDS011;15592;53.656;7.276;2023-06-22T03:16:17;13.93;;;11.25;;
28335;SDS011;15592;53.656;7.276;2023-06-22T03:18:43;13.80;;;10.52;;
28335;SDS011;15592;53.656;7.276;2023-06-22T03:21:08;12.43;;;9.50;;
28335;SDS011;15592;53.656;7.276;2023-06-22T03:23:34;13.65;;;11.00;;
28335;SDS011;15592;53.656;7.276;2023-06-22T03:26:00;16.23;;;12.85;;
28335;SDS011;15592;53.656;7.276;2023-06-22T03:28:26;15.10;;;11.55;;
28335;SDS011;15592;53.656;7.276;2023-06-22T03:30:52;19.45;;;15.13;;
28335;SDS011;15592;53.656;7.276;2023-06-22T03:33:18;36.75;;;26.02;;
28335;SDS011;15592;53.656;7.276;2023-06-22T03:35:43;45.17;;;29.33;;
28335;SDS011;15592;53.656;7.276;2023-06-22T03:38:09;35.88;;;25.52;;
28335;SDS011;15592;53.656;7.276;2023-06-22T03:40:34;35.05;;;22.77;;
28335;SDS011;15592;53.656;7.276;2023-06-22T03:43:00;27.77;;;19.02;;
28335;SDS011;15592;53.656;7.276;2023-06-22T03:45:25;24.08;;;16.25;;
28335;SDS011;15592;53.656;7.276;2023-06-22T03:47:51;20.00;;;14.57;;
28335;SDS011;15592;53.656;7.276;2023-06-22T03:50:17;17.38;;;13.15;;
28335;SDS011;15592;53.656;7.276;2023-06-22T03:52:45;15.82;;;11.55;;
28335;SDS011;15592;53.656;7.276;2023-06-22T03:55:11;13.88;;;10.65;;
28335;SDS011;15592;53.656;7.276;2023-06-22T03:57:36;23.27;;;13.23;;
28335;SDS011;15592;53.656;7.276;2023-06-22T04:00:02;19.00;;;12.68;;
28335;SDS011;15592;53.656;7.276;2023-06-22T04:02:30;17.50;;;13.10;;
28335;SDS011;15592;53.656;7.276;2023-06-22T04:04:56;15.82;;;12.23;;
28335;SDS011;15592;53.656;7.276;2023-06-22T04:07:22;15.65;;;12.25;;
28335;SDS011;15592;53.656;7.276;2023-06-22T04:09:47;16.13;;;11.35;;
28335;SDS011;15592;53.656;7.276;2023-06-22T04:12:13;16.73;;;11.30;;
28335;SDS011;15592;53.656;7.276;2023-06-22T04:14:39;12.82;;;9.85;;
28335;SDS011;15592;53.656;7.276;2023-06-22T04:17:04;10.00;;;8.38;;
28335;SDS011;15592;53.656;7.276;2023-06-22T04:19:30;12.73;;;9.55;;
28335;SDS011;15592;53.656;7.276;2023-06-22T04:21:56;17.02;;;10.90;;
28335;SDS011;15592;53.656;7.276;2023-06-22T04:24:21;17.40;;;12.70;;
28335;SDS011;15592;53.656;7.276;2023-06-22T04:26:47;20.27;;;14.00;;
28335;SDS011;15592;53.656;7.276;2023-06-22T04:29:13;20.52;;;13.20;;
28335;SDS011;15592;53.656;7.276;2023-06-22T04:31:39;18.33;;;13.23;;
28335;SDS011;15592;53.656;7.276;2023-06-22T04:34:05;17.20;;;12.80;;
28335;SDS011;15592;53.656;7.276;2023-06-22T04:36:35;18.38;;;13.95;;
28335;SDS011;15592;53.656;7.276;2023-06-22T04:39:10;16.45;;;12.70;;
28335;SDS011;15592;53.656;7.276;2023-06-22T04:41:36;13.70;;;11.00;;
28335;SDS011;15592;53.656;7.276;2023-06-22T04:44:13;16.30;;;12.65;;
28335;SDS011;15592;53.656;7.276;2023-06-22T04:46:55;17.35;;;13.98;;
28335;SDS011;15592;53.656;7.276;2023-06-22T04:49:33;21.35;;;14.73;;
28335;SDS011;15592;53.656;7.276;2023-06-22T04:52:04;17.88;;;13.88;;
28335;SDS011;15592;53.656;7.276;2023-06-22T04:57:01;16.67;;;13.43;;
28335;SDS011;15592;53.656;7.276;2023-06-22T04:59:28;13.57;;;10.77;;
28335;SDS011;15592;53.656;7.276;2023-06-22T05:01:55;12.40;;;9.88;;
28335;SDS011;15592;53.656;7.276;2023-06-22T05:04:25;9.40;;;8.15;;
28335;SDS011;15592;53.656;7.276;2023-06-22T05:06:52;9.10;;;7.93;;
28335;SDS011;15592;53.656;7.276;2023-06-22T05:09:19;23.20;;;16.15;;
28335;SDS011;15592;53.656;7.276;2023-06-22T05:11:45;25.98;;;19.30;;
28335;SDS011;15592;53.656;7.276;2023-06-22T05:14:11;23.17;;;18.65;;
28335;SDS011;15592;53.656;7.276;2023-06-22T05:16:37;20.13;;;15.20;;
28335;SDS011;15592;53.656;7.276;2023-06-22T05:19:03;16.77;;;12.77;;
28335;SDS011;15592;53.656;7.276;2023-06-22T05:21:29;13.30;;;11.10;;
28335;SDS011;15592;53.656;7.276;2023-06-22T05:23:56;10.77;;;8.52;;
28335;SDS011;15592;53.656;7.276;2023-06-22T05:26:25;10.73;;;9.30;;
28335;SDS011;15592;53.656;7.276;2023-06-22T05:28:51;11.07;;;9.50;;
28335;SDS011;15592;53.656;7.276;2023-06-22T05:31:18;9.40;;;8.40;;
28335;SDS011;15592;53.656;7.276;2023-06-22T05:33:44;9.85;;;8.13;;
28335;SDS011;15592;53.656;7.276;2023-06-22T05:36:10;8.55;;;7.43;;
28335;SDS011;15592;53.656;7.276;2023-06-22T05:38:37;8.40;;;7.18;;
28335;SDS011;15592;53.656;7.276;2023-06-22T05:41:03;7.75;;;6.30;;
28335;SDS011;15592;53.656;7.276;2023-06-22T05:43:29;7.15;;;6.45;;
28335;SDS011;15592;53.656;7.276;2023-06-22T05:45:55;7.20;;;5.88;;
28335;SDS011;15592;53.656;7.276;2023-06-22T05:48:21;5.93;;;5.32;;
28335;SDS011;15592;53.656;7.276;2023-06-22T05:50:46;7.43;;;6.63;;
28335;SDS011;15592;53.656;7.276;2023-06-22T05:53:12;9.73;;;8.30;;
28335;SDS011;15592;53.656;7.276;2023-06-22T05:55:38;14.75;;;12.75;;
28335;SDS011;15592;53.656;7.276;2023-06-22T05:58:03;14.52;;;10.88;;
28335;SDS011;15592;53.656;7.276;2023-06-22T06:00:29;10.18;;;8.23;;
28335;SDS011;15592;53.656;7.276;2023-06-22T06:02:56;13.68;;;11.13;;
28335;SDS011;15592;53.656;7.276;2023-06-22T06:05:21;22.40;;;16.17;;
28335;SDS011;15592;53.656;7.276;2023-06-22T06:07:48;15.63;;;12.32;;
28335;SDS011;15592;53.656;7.276;2023-06-22T06:10:14;12.32;;;9.48;;
28335;SDS011;15592;53.656;7.276;2023-06-22T06:12:40;9.65;;;7.75;;
28335;SDS011;15592;53.656;7.276;2023-06-22T06:15:05;8.20;;;7.10;;
28335;SDS011;15592;53.656;7.276;2023-06-22T06:17:31;8.70;;;7.07;;
28335;SDS011;15592;53.656;7.276;2023-06-22T06:19:59;9.32;;;7.45;;
28335;SDS011;15592;53.656;7.276;2023-06-22T06:22:24;10.93;;;7.97;;
28335;SDS011;15592;53.656;7.276;2023-06-22T06:24:50;9.68;;;7.93;;
28335;SDS011;15592;53.656;7.276;2023-06-22T06:27:16;7.05;;;6.22;;
28335;SDS011;15592;53.656;7.276;2023-06-22T06:29:44;6.90;;;5.55;;
28335;SDS011;15592;53.656;7.276;2023-06-22T06:32:13;7.75;;;6.82;;
28335;SDS011;15592;53.656;7.276;2023-06-22T06:34:39;6.97;;;5.88;;
28335;SDS011;15592;53.656;7.276;2023-06-22T06:37:05;6.45;;;5.00;;
28335;SDS011;15592;53.656;7.276;2023-06-22T06:39:31;12.93;;;9.98;;
28335;SDS011;15592;53.656;7.276;2023-06-22T06:41:56;17.63;;;11.88;;
28335;SDS011;15592;53.656;7.276;2023-06-22T06:44:22;13.40;;;9.55;;
28335;SDS011;15592;53.656;7.276;2023-06-22T06:46:48;10.23;;;8.07;;
28335;SDS011;15592;53.656;7.276;2023-06-22T06:49:13;8.40;;;6.90;;
28335;SDS011;15592;53.656;7.276;2023-06-22T06:51:39;8.68;;;7.28;;
28335;SDS011;15592;53.656;7.276;2023-06-22T06:54:05;8.27;;;6.90;;
28335;SDS011;15592;53.656;7.276;2023-06-22T06:56:30;12.45;;;9.50;;
28335;SDS011;15592;53.656;7.276;2023-06-22T06:58:58;10.20;;;7.50;;
28335;SDS011;15592;53.656;7.276;2023-06-22T07:01:24;8.80;;;7.03;;
28335;SDS011;15592;53.656;7.276;2023-06-22T07:03:49;9.18;;;6.47;;
28335;SDS011;15592;53.656;7.276;2023-06-22T07:06:15;8.20;;;5.95;;
28335;SDS011;15592;53.656;7.276;2023-06-22T07:08:41;6.70;;;5.85;;
28335;SDS011;15592;53.656;7.276;2023-06-22T07:11:07;6.75;;;5.45;;
28335;SDS011;15592;53.656;7.276;2023-06-22T07:13:33;5.35;;;4.22;;
28335;SDS011;15592;53.656;7.276;2023-06-22T07:15:59;6.45;;;4.47;;
28335;SDS011;15592;53.656;7.276;2023-06-22T07:18:25;5.95;;;5.18;;
28335;SDS011;15592;53.656;7.276;2023-06-22T07:20:51;7.35;;;5.57;;
28335;SDS011;15592;53.656;7.276;2023-06-22T07:23:17;7.15;;;6.30;;
28335;SDS011;15592;53.656;7.276;2023-06-22T07:25:42;8.68;;;7.28;;
28335;SDS011;15592;53.656;7.276;2023-06-22T07:28:08;10.75;;;7.88;;
28335;SDS011;15592;53.656;7.276;2023-06-22T07:30:34;9.40;;;7.15;;
28335;SDS011;15592;53.656;7.276;2023-06-22T07:33:00;9.20;;;7.65;;
28335;SDS011;15592;53.656;7.276;2023-06-22T07:35:32;8.45;;;6.47;;
28335;SDS011;15592;53.656;7.276;2023-06-22T07:37:58;7.65;;;5.72;;
28335;SDS011;15592;53.656;7.276;2023-06-22T07:40:24;6.70;;;6.00;;
28335;SDS011;15592;53.656;7.276;2023-06-22T07:42:50;6.00;;;5.38;;
28335;SDS011;15592;53.656;7.276;2023-06-22T07:45:19;5.60;;;4.80;;
28335;SDS011;15592;53.656;7.276;2023-06-22T07:47:45;4.35;;;3.72;;
28335;SDS011;15592;53.656;7.276;2023-06-22T07:50:11;4.43;;;4.03;;
28335;SDS011;15592;53.656;7.276;2023-06-22T07:52:36;5.97;;;4.88;;
28335;SDS011;15592;53.656;7.276;2023-06-22T07:55:02;5.70;;;4.93;;
28335;SDS011;15592;53.656;7.276;2023-06-22T07:57:29;4.88;;;4.40;;
28335;SDS011;15592;53.656;7.276;2023-06-22T08:00:02;4.85;;;4.20;;
28335;SDS011;15592;53.656;7.276;2023-06-22T08:02:37;4.85;;;4.13;;
28335;SDS011;15592;53.656;7.276;2023-06-22T08:05:02;4.57;;;4.10;;
28335;SDS011;15592;53.656;7.276;2023-06-22T08:07:29;4.63;;;3.72;;
28335;SDS011;15592;53.656;7.276;2023-06-22T08:09:54;4.82;;;3.95;;
28335;SDS011;15592;53.656;7.276;2023-06-22T08:12:20;4.80;;;3.92;;
28335;SDS011;15592;53.656;7.276;2023-06-22T08:14:46;4.82;;;4.28;;
28335;SDS011;15592;53.656;7.276;2023-06-22T08:17:12;6.55;;;4.50;;
28335;SDS011;15592;53.656;7.276;2023-06-22T08:19:38;4.40;;;3.80;;
28335;SDS011;15592;53.656;7.276;2023-06-22T08:22:04;4.70;;;4.13;;
28335;SDS011;15592;53.656;7.276;2023-06-22T08:24:30;4.68;;;4.18;;
28335;SDS011;15592;53.656;7.276;2023-06-22T08:26:56;5.63;;;3.97;;
28335;SDS011;15592;53.656;7.276;2023-06-22T08:29:21;5.22;;;3.85;;
28335;SDS011;15592;53.656;7.276;2023-06-22T08:31:47;5.28;;;3.67;;
28335;SDS011;15592;53.656;7.276;2023-06-22T08:34:13;3.90;;;3.22;;
28335;SDS011;15592;53.656;7.276;2023-06-22T08:36:38;4.50;;;3.70;;
28335;SDS011;15592;53.656;7.276;2023-06-22T08:39:09;5.63;;;3.60;;
28335;SDS011;15592;53.656;7.276;2023-06-22T08:41:35;4.55;;;3.78;;
28335;SDS011;15592;53.656;7.276;2023-06-22T08:44:00;4.38;;;3.72;;
28335;SDS011;15592;53.656;7.276;2023-06-22T08:46:26;4.90;;;3.90;;
28335;SDS011;15592;53.656;7.276;2023-06-22T08:48:56;5.30;;;4.20;;
28335;SDS011;15592;53.656;7.276;2023-06-22T08:51:22;4.45;;;3.97;;
28335;SDS011;15592;53.656;7.276;2023-06-22T08:53:48;5.82;;;4.28;;
28335;SDS011;15592;53.656;7.276;2023-06-22T08:56:14;6.18;;;5.10;;
28335;SDS011;15592;53.656;7.276;2023-06-22T08:58:39;6.07;;;4.47;;
28335;SDS011;15592;53.656;7.276;2023-06-22T09:01:05;4.15;;;3.67;;
28335;SDS011;15592;53.656;7.276;2023-06-22T09:03:31;4.78;;;4.03;;
28335;SDS011;15592;53.656;7.276;2023-06-22T09:05:57;4.10;;;3.70;;
28335;SDS011;15592;53.656;7.276;2023-06-22T09:08:23;4.03;;;3.40;;
28335;SDS011;15592;53.656;7.276;2023-06-22T09:10:49;6.95;;;3.80;;
28335;SDS011;15592;53.656;7.276;2023-06-22T09:13:15;4.85;;;3.72;;
28335;SDS011;15592;53.656;7.276;2023-06-22T09:15:40;4.57;;;3.05;;
28335;SDS011;15592;53.656;7.276;2023-06-22T09:18:06;5.05;;;3.70;;
28335;SDS011;15592;53.656;7.276;2023-06-22T09:20:34;4.47;;;3.83;;
28335;SDS011;15592;53.656;7.276;2023-06-22T09:23:00;4.70;;;3.40;;
28335;SDS011;15592;53.656;7.276;2023-06-22T09:25:26;4.95;;;3.63;;
28335;SDS011;15592;53.656;7.276;2023-06-22T09:27:51;4.25;;;3.78;;
28335;SDS011;15592;53.656;7.276;2023-06-22T09:30:17;5.88;;;3.90;;
28335;SDS011;15592;53.656;7.276;2023-06-22T09:32:43;6.50;;;4.10;;
28335;SDS011;15592;53.656;7.276;2023-06-22T09:35:08;5.25;;;4.00;;
28335;SDS011;15592;53.656;7.276;2023-06-22T09:37:34;5.63;;;4.38;;
28335;SDS011;15592;53.656;7.276;2023-06-22T09:40:00;5.82;;;3.53;;
28335;SDS011;15592;53.656;7.276;2023-06-22T09:42:26;5.47;;;4.13;;
28335;SDS011;15592;53.656;7.276;2023-06-22T09:44:52;5.35;;;3.75;;
28335;SDS011;15592;53.656;7.276;2023-06-22T09:47:17;5.35;;;3.75;;
28335;SDS011;15592;53.656;7.276;2023-06-22T09:49:43;6.63;;;4.25;;
28335;SDS011;15592;53.656;7.276;2023-06-22T09:52:08;4.70;;;3.78;;
28335;SDS011;15592;53.656;7.276;2023-06-22T09:54:36;5.82;;;3.83;;
28335;SDS011;15592;53.656;7.276;2023-06-22T09:57:01;4.65;;;3.95;;
28335;SDS011;15592;53.656;7.276;2023-06-22T09:59:27;6.20;;;3.90;;
28335;SDS011;15592;53.656;7.276;2023-06-22T10:01:53;5.57;;;3.90;;
28335;SDS011;15592;53.656;7.276;2023-06-22T10:04:18;5.28;;;3.58;;
28335;SDS011;15592;53.656;7.276;2023-06-22T10:06:44;3.83;;;3.40;;
28335;SDS011;15592;53.656;7.276;2023-06-22T10:09:09;4.43;;;3.40;;
28335;SDS011;15592;53.656;7.276;2023-06-22T10:11:35;5.57;;;3.75;;
28335;SDS011;15592;53.656;7.276;2023-06-22T10:14:02;5.53;;;4.13;;
28335;SDS011;15592;53.656;7.276;2023-06-22T10:16:32;6.10;;;3.70;;
28335;SDS011;15592;53.656;7.276;2023-06-22T10:18:58;4.57;;;3.78;;
28335;SDS011;15592;53.656;7.276;2023-06-22T10:21:23;5.20;;;3.65;;
28335;SDS011;15592;53.656;7.276;2023-06-22T10:23:49;7.00;;;3.90;;
28335;SDS011;15592;53.656;7.276;2023-06-22T10:26:15;5.30;;;4.00;;
28335;SDS011;15592;53.656;7.276;2023-06-22T10:28:40;6.93;;;3.88;;
28335;SDS011;15592;53.656;7.276;2023-06-22T10:31:06;6.88;;;4.07;;
28335;SDS011;15592;53.656;7.276;2023-06-22T10:33:32;4.57;;;3.75;;
28335;SDS011;15592;53.656;7.276;2023-06-22T10:35:57;5.85;;;4.53;;
28335;SDS011;15592;53.656;7.276;2023-06-22T10:38:23;6.07;;;3.72;;
28335;SDS011;15592;53.656;7.276;2023-06-22T10:40:48;4.57;;;4.10;;
28335;SDS011;15592;53.656;7.276;2023-06-22T10:43:14;4.90;;;3.60;;
28335;SDS011;15592;53.656;7.276;2023-06-22T10:45:40;3.20;;;2.67;;
28335;SDS011;15592;53.656;7.276;2023-06-22T10:48:05;4.93;;;3.50;;
28335;SDS011;15592;53.656;7.276;2023-06-22T10:50:31;4.63;;;3.33;;
28335;SDS011;15592;53.656;7.276;2023-06-22T10:52:57;4.90;;;3.35;;
28335;SDS011;15592;53.656;7.276;2023-06-22T10:55:22;5.15;;;3.42;;
28335;SDS011;15592;53.656;7.276;2023-06-22T10:57:48;4.25;;;3.03;;
28335;SDS011;15592;53.656;7.276;2023-06-22T11:00:14;4.07;;;3.03;;
28335;SDS011;15592;53.656;7.276;2023-06-22T11:02:40;5.13;;;3.55;;
28335;SDS011;15592;53.656;7.276;2023-06-22T11:05:06;6.32;;;3.28;;
28335;SDS011;15592;53.656;7.276;2023-06-22T11:07:32;4.78;;;3.30;;
28335;SDS011;15592;53.656;7.276;2023-06-22T11:09:58;4.97;;;3.85;;
28335;SDS011;15592;53.656;7.276;2023-06-22T11:12:24;6.15;;;4.53;;
28335;SDS011;15592;53.656;7.276;2023-06-22T11:14:49;6.40;;;4.60;;
28335;SDS011;15592;53.656;7.276;2023-06-22T11:17:16;7.38;;;4.90;;
28335;SDS011;15592;53.656;7.276;2023-06-22T11:19:43;8.00;;;5.93;;
28335;SDS011;15592;53.656;7.276;2023-06-22T11:22:09;6.85;;;5.20;;
28335;SDS011;15592;53.656;7.276;2023-06-22T11:24:35;5.38;;;4.30;;
28335;SDS011;15592;53.656;7.276;2023-06-22T11:27:01;9.45;;;6.70;;
28335;SDS011;15592;53.656;7.276;2023-06-22T11:29:26;7.97;;;6.07;;
28335;SDS011;15592;53.656;7.276;2023-06-22T11:31:52;8.35;;;5.00;;
28335;SDS011;15592;53.656;7.276;2023-06-22T11:34:17;5.68;;;4.43;;
28335;SDS011;15592;53.656;7.276;2023-06-22T11:36:44;9.10;;;4.95;;
28335;SDS011;15592;53.656;7.276;2023-06-22T11:39:10;6.35;;;5.10;;
28335;SDS011;15592;53.656;7.276;2023-06-22T11:41:36;6.43;;;4.95;;
28335;SDS011;15592;53.656;7.276;2023-06-22T11:44:03;8.43;;;5.53;;
28335;SDS011;15592;53.656;7.276;2023-06-22T11:46:29;7.60;;;5.70;;
28335;SDS011;15592;53.656;7.276;2023-06-22T11:48:56;5.78;;;4.32;;
28335;SDS011;15592;53.656;7.276;2023-06-22T11:51:22;4.35;;;3.42;;
28335;SDS011;15592;53.656;7.276;2023-06-22T11:53:48;5.70;;;3.70;;
28335;SDS011;15592;53.656;7.276;2023-06-22T11:56:13;5.75;;;3.95;;
28335;SDS011;15592;53.656;7.276;2023-06-22T11:58:39;6.68;;;4.20;;
28335;SDS011;15592;53.656;7.276;2023-06-22T12:01:04;6.03;;;3.75;;
28335;SDS011;15592;53.656;7.276;2023-06-22T12:03:30;3.50;;;2.95;;
28335;SDS011;15592;53.656;7.276;2023-06-22T12:05:55;5.35;;;3.97;;
28335;SDS011;15592;53.656;7.276;2023-06-22T12:08:21;6.22;;;4.53;;
28335;SDS011;15592;53.656;7.276;2023-06-22T12:10:48;5.90;;;4.28;;
28335;SDS011;15592;53.656;7.276;2023-06-22T12:13:15;6.38;;;4.28;;
28335;SDS011;15592;53.656;7.276;2023-06-22T12:15:40;6.10;;;3.40;;
28335;SDS011;15592;53.656;7.276;2023-06-22T12:18:06;4.18;;;3.08;;
28335;SDS011;15592;53.656;7.276;2023-06-22T12:20:31;3.67;;;3.08;;
28335;SDS011;15592;53.656;7.276;2023-06-22T12:22:57;11.73;;;3.40;;
28335;SDS011;15592;53.656;7.276;2023-06-22T12:25:23;5.70;;;3.28;;
28335;SDS011;15592;53.656;7.276;2023-06-22T12:27:49;3.83;;;3.30;;
28335;SDS011;15592;53.656;7.276;2023-06-22T12:30:15;4.57;;;2.53;;
28335;SDS011;15592;53.656;7.276;2023-06-22T12:32:41;4.53;;;2.85;;
28335;SDS011;15592;53.656;7.276;2023-06-22T12:35:07;3.13;;;2.70;;
28335;SDS011;15592;53.656;7.276;2023-06-22T12:37:37;4.63;;;2.92;;
28335;SDS011;15592;53.656;7.276;2023-06-22T12:40:02;3.47;;;2.95;;
28335;SDS011;15592;53.656;7.276;2023-06-22T12:42:29;4.75;;;2.80;;
28335;SDS011;15592;53.656;7.276;2023-06-22T12:44:54;3.50;;;3.00;;
28335;SDS011;15592;53.656;7.276;2023-06-22T12:47:20;5.72;;;3.50;;
28335;SDS011;15592;53.656;7.276;2023-06-22T12:49:46;5.30;;;3.08;;
28335;SDS011;15592;53.656;7.276;2023-06-22T12:52:11;4.28;;;3.38;;
28335;SDS011;15592;53.656;7.276;2023-06-22T12:54:37;4.50;;;2.90;;
28335;SDS011;15592;53.656;7.276;2023-06-22T12:57:02;3.25;;;2.78;;
28335;SDS011;15592;53.656;7.276;2023-06-22T12:59:28;3.15;;;2.55;;
28335;SDS011;15592;53.656;7.276;2023-06-22T13:01:54;2.90;;;2.58;;
28335;SDS011;15592;53.656;7.276;2023-06-22T13:04:20;3.55;;;2.60;;
28335;SDS011;15592;53.656;7.276;2023-06-22T13:06:46;3.33;;;2.22;;
28335;SDS011;15592;53.656;7.276;2023-06-22T13:09:13;2.78;;;2.15;;
28335;SDS011;15592;53.656;7.276;2023-06-22T13:11:39;3.38;;;2.40;;
28335;SDS011;15592;53.656;7.276;2023-06-22T13:14:05;2.80;;;2.20;;
28335;SDS011;15592;53.656;7.276;2023-06-22T13:16:31;4.05;;;2.00;;
28335;SDS011;15592;53.656;7.276;2023-06-22T13:18:56;2.88;;;2.30;;
28335;SDS011;15592;53.656;7.276;2023-06-22T13:21:22;2.33;;;2.08;;
28335;SDS011;15592;53.656;7.276;2023-06-22T13:23:48;2.63;;;1.60;;
28335;SDS011;15592;53.656;7.276;2023-06-22T13:26:13;3.00;;;1.95;;
28335;SDS011;15592;53.656;7.276;2023-06-22T13:28:39;2.58;;;2.10;;
28335;SDS011;15592;53.656;7.276;2023-06-22T13:31:04;2.70;;;1.90;;
28335;SDS011;15592;53.656;7.276;2023-06-22T13:33:48;4.47;;;2.00;;
28335;SDS011;15592;53.656;7.276;2023-06-22T13:36:17;3.45;;;1.88;;
28335;SDS011;15592;53.656;7.276;2023-06-22T13:38:43;2.08;;;1.67;;
28335;SDS011;15592;53.656;7.276;2023-06-22T13:41:08;3.38;;;1.70;;
28335;SDS011;15592;53.656;7.276;2023-06-22T13:43:34;1.70;;;1.60;;
28335;SDS011;15592;53.656;7.276;2023-06-22T13:45:59;1.95;;;1.73;;
28335;SDS011;15592;53.656;7.276;2023-06-22T13:48:25;2.70;;;1.73;;
28335;SDS011;15592;53.656;7.276;2023-06-22T13:50:51;3.55;;;2.10;;
28335;SDS011;15592;53.656;7.276;2023-06-22T13:53:17;3.22;;;1.63;;
28335;SDS011;15592;53.656;7.276;2023-06-22T13:55:43;2.10;;;1.88;;
28335;SDS011;15592;53.656;7.276;2023-06-22T13:58:08;3.28;;;2.20;;
28335;SDS011;15592;53.656;7.276;2023-06-22T14:00:34;3.38;;;2.00;;
28335;SDS011;15592;53.656;7.276;2023-06-22T14:02:59;2.03;;;1.80;;
28335;SDS011;15592;53.656;7.276;2023-06-22T14:05:25;2.97;;;1.90;;
28335;SDS011;15592;53.656;7.276;2023-06-22T14:07:51;2.20;;;1.98;;
28335;SDS011;15592;53.656;7.276;2023-06-22T14:10:17;2.97;;;2.30;;
28335;SDS011;15592;53.656;7.276;2023-06-22T14:12:42;3.42;;;1.98;;
28335;SDS011;15592;53.656;7.276;2023-06-22T14:15:08;2.65;;;2.00;;
28335;SDS011;15592;53.656;7.276;2023-06-22T14:17:34;2.60;;;2.10;;
28335;SDS011;15592;53.656;7.276;2023-06-22T14:20:02;4.35;;;2.47;;
28335;SDS011;15592;53.656;7.276;2023-06-22T14:22:33;2.90;;;1.90;;
28335;SDS011;15592;53.656;7.276;2023-06-22T14:25:00;3.40;;;2.20;;
28335;SDS011;15592;53.656;7.276;2023-06-22T14:27:26;3.58;;;2.58;;
28335;SDS011;15592;53.656;7.276;2023-06-22T14:29:52;2.63;;;2.25;;
28335;SDS011;15592;53.656;7.276;2023-06-22T14:32:18;3.95;;;2.10;;
28335;SDS011;15592;53.656;7.276;2023-06-22T14:34:43;2.85;;;2.30;;
28335;SDS011;15592;53.656;7.276;2023-06-22T14:37:09;3.70;;;2.75;;
28335;SDS011;15592;53.656;7.276;2023-06-22T14:39:36;3.72;;;2.75;;
28335;SDS011;15592;53.656;7.276;2023-06-22T14:42:01;2.83;;;2.38;;
28335;SDS011;15592;53.656;7.276;2023-06-22T14:44:28;2.28;;;2.00;;
28335;SDS011;15592;53.656;7.276;2023-06-22T14:46:54;3.13;;;2.30;;
28335;SDS011;15592;53.656;7.276;2023-06-22T14:49:21;3.72;;;2.50;;
28335;SDS011;15592;53.656;7.276;2023-06-22T14:51:47;3.40;;;2.40;;
28335;SDS011;15592;53.656;7.276;2023-06-22T14:54:13;3.70;;;2.90;;
28335;SDS011;15592;53.656;7.276;2023-06-22T14:56:39;3.53;;;2.47;;